Station Historical Data
Daily Summary for March 3, 2012 Units:  Both    English   Metric
« Previous Day
Next Day »
Daily Weekly Monthly Yearly Custom
  High: Low: Average:
Temperature: 54.6 °F /  12.6 °C 35.0 °F /  1.7 °C 46 °F /  7.8 °C
Dew Point: 40.2 °F /  4.6 °C 21.6 °F /  -5.8 °C 28.7 °F /  -1.8 °C
Humidity: 84% 29% 53%
Wind Speed: 18.0mph /  29km/h - 6mph /  9.7km/h
Wind Gust: 25.0mph /  40.2km/h - -
Wind- - WSW
Pressure: 29.96 in /  1014.4 hPa 29.71 in /  1006 hPa -
Precipitation: 0.00 in /  0 mm    
Historical Graphs
 
 
Tabular Data for March 3, 2012
Time Temperature Dew Point Pressure Wind Wind Speed Wind Gust Humidity Rainfall Rate (Hourly) Conditions
00:00 52.0 °F /  11.1 °C 40.2 °F /  4.6 °C 29.71in /  1006hPa NW 18.0mph /  29km/h 19.0mph /  30.6km/h 64% 0.00in /  0mm
00:05 51.6 °F /  10.9 °C 39.4 °F /  4.1 °C 29.72in /  1006.3hPa NW 13.0mph /  20.9km/h 17.0mph /  27.4km/h 63% 0.00in /  0mm
00:10 51.4 °F /  10.8 °C 39.2 °F /  4 °C 29.73in /  1006.7hPa NW 12.0mph /  19.3km/h 18.0mph /  29km/h 63% 0.00in /  0mm
00:15 51.1 °F /  10.6 °C 39.4 °F /  4.1 °C 29.73in /  1006.7hPa NNW 12.0mph /  19.3km/h 21.0mph /  33.8km/h 64% 0.00in /  0mm
00:20 50.6 °F /  10.3 °C 39.3 °F /  4.1 °C 29.73in /  1006.7hPa NW 11.0mph /  17.7km/h 25.0mph /  40.2km/h 65% 0.00in /  0mm
00:26 50.2 °F /  10.1 °C 39.7 °F /  4.3 °C 29.73in /  1006.7hPa NW 6.0mph /  9.7km/h 15.0mph /  24.1km/h 67% 0.00in /  0mm
00:31 49.9 °F /  9.9 °C 39.4 °F /  4.1 °C 29.73in /  1006.7hPa NNW 10.0mph /  16.1km/h 17.0mph /  27.4km/h 67% 0.00in /  0mm
00:36 49.3 °F /  9.6 °C 39.2 °F /  4 °C 29.74in /  1007hPa WNW 16.0mph /  25.7km/h 17.0mph /  27.4km/h 68% 0.00in /  0mm
00:41 48.5 °F /  9.2 °C 39.9 °F /  4.4 °C 29.74in /  1007hPa NNW 9.0mph /  14.5km/h 15.0mph /  24.1km/h 72% 0.00in /  0mm
00:46 48.1 °F /  8.9 °C 39.2 °F /  4 °C 29.75in /  1007.3hPa NW 9.0mph /  14.5km/h 15.0mph /  24.1km/h 71% 0.00in /  0mm
00:51 48.0 °F /  8.9 °C 39.4 °F /  4.1 °C 29.75in /  1007.3hPa NW 8.0mph /  12.9km/h 14.0mph /  22.5km/h 72% 0.00in /  0mm
00:56 47.9 °F /  8.8 °C 39.3 °F /  4.1 °C 29.75in /  1007.3hPa NW 10.0mph /  16.1km/h 15.0mph /  24.1km/h 72% 0.00in /  0mm
01:01 47.7 °F /  8.7 °C 39.1 °F /  3.9 °C 29.75in /  1007.3hPa NW 10.0mph /  16.1km/h 14.0mph /  22.5km/h 72% 0.00in /  0mm
01:06 47.6 °F /  8.7 °C 38.7 °F /  3.7 °C 29.75in /  1007.3hPa North 10.0mph /  16.1km/h 13.0mph /  20.9km/h 71% 0.00in /  0mm
01:11 47.4 °F /  8.6 °C 38.1 °F /  3.4 °C 29.75in /  1007.3hPa NW 6.0mph /  9.7km/h 14.0mph /  22.5km/h 70% 0.00in /  0mm
01:16 47.3 °F /  8.5 °C 38.0 °F /  3.3 °C 29.75in /  1007.3hPa NNW 13.0mph /  20.9km/h 14.0mph /  22.5km/h 70% 0.00in /  0mm
01:21 47.2 °F /  8.4 °C 37.9 °F /  3.3 °C 29.76in /  1007.7hPa NW 10.0mph /  16.1km/h 13.0mph /  20.9km/h 70% 0.00in /  0mm
01:26 46.9 °F /  8.3 °C 37.6 °F /  3.1 °C 29.76in /  1007.7hPa North 5.0mph /  8km/h 11.0mph /  17.7km/h 70% 0.00in /  0mm
01:31 46.8 °F /  8.2 °C 37.2 °F /  2.9 °C 29.76in /  1007.7hPa NNW 9.0mph /  14.5km/h 15.0mph /  24.1km/h 69% 0.00in /  0mm
01:36 46.7 °F /  8.2 °C 36.7 °F /  2.6 °C 29.76in /  1007.7hPa NNW 14.0mph /  22.5km/h 19.0mph /  30.6km/h 68% 0.00in /  0mm
01:41 46.5 °F /  8.1 °C 36.5 °F /  2.5 °C 29.77in /  1008hPa NW 11.0mph /  17.7km/h 14.0mph /  22.5km/h 68% 0.00in /  0mm
01:46 46.3 °F /  7.9 °C 36.3 °F /  2.4 °C 29.77in /  1008hPa NNW 11.0mph /  17.7km/h 13.0mph /  20.9km/h 68% 0.00in /  0mm
01:51 46.3 °F /  7.9 °C 36.0 °F /  2.2 °C 29.78in /  1008.4hPa NNW 15.0mph /  24.1km/h 17.0mph /  27.4km/h 67% 0.00in /  0mm
01:56 46.2 °F /  7.9 °C 34.7 °F /  1.5 °C 29.78in /  1008.4hPa NW 9.0mph /  14.5km/h 16.0mph /  25.7km/h 64% 0.00in /  0mm
02:01 45.9 °F /  7.7 °C 32.4 °F /  0.2 °C 29.78in /  1008.4hPa NNW 14.0mph /  22.5km/h 20.0mph /  32.2km/h 59% 0.00in /  0mm
02:06 45.6 °F /  7.6 °C 31.3 °F /  -0.4 °C 29.78in /  1008.4hPa North 16.0mph /  25.7km/h 18.0mph /  29km/h 57% 0.00in /  0mm
02:11 45.3 °F /  7.4 °C 31.4 °F /  -0.3 °C 29.79in /  1008.7hPa North 11.0mph /  17.7km/h 19.0mph /  30.6km/h 58% 0.00in /  0mm
02:16 45.0 °F /  7.2 °C 32.0 °F /  0 °C 29.79in /  1008.7hPa NNW 9.0mph /  14.5km/h 13.0mph /  20.9km/h 60% 0.00in /  0mm
02:21 44.7 °F /  7.1 °C 31.3 °F /  -0.4 °C 29.79in /  1008.7hPa North 7.0mph /  11.3km/h 16.0mph /  25.7km/h 59% 0.00in /  0mm
02:26 44.4 °F /  6.9 °C 31.0 °F /  -0.6 °C 29.79in /  1008.7hPa NNW 10.0mph /  16.1km/h 18.0mph /  29km/h 59% 0.00in /  0mm
02:31 44.1 °F /  6.7 °C 31.1 °F /  -0.5 °C 29.79in /  1008.7hPa NW 13.0mph /  20.9km/h 13.0mph /  20.9km/h 60% 0.00in /  0mm
02:36 43.9 °F /  6.6 °C 30.5 °F /  -0.8 °C 29.79in /  1008.7hPa NNW 14.0mph /  22.5km/h 20.0mph /  32.2km/h 59% 0.00in /  0mm
02:41 43.6 °F /  6.4 °C 30.6 °F /  -0.8 °C 29.79in /  1008.7hPa NE 16.0mph /  25.7km/h 17.0mph /  27.4km/h 60% 0.00in /  0mm
02:46 43.4 °F /  6.3 °C 30.5 °F /  -0.8 °C 29.80in /  1009hPa NNW 14.0mph /  22.5km/h 16.0mph /  25.7km/h 60% 0.00in /  0mm
02:51 43.2 °F /  6.2 °C 30.7 °F /  -0.7 °C 29.80in /  1009hPa NNW 8.0mph /  12.9km/h 16.0mph /  25.7km/h 61% 0.00in /  0mm
02:56 42.9 °F /  6.1 °C 30.4 °F /  -0.9 °C 29.81in /  1009.4hPa North 6.0mph /  9.7km/h 14.0mph /  22.5km/h 61% 0.00in /  0mm
03:01 42.8 °F /  6 °C 30.7 °F /  -0.7 °C 29.81in /  1009.4hPa NNW 12.0mph /  19.3km/h 19.0mph /  30.6km/h 62% 0.00in /  0mm
03:06 42.7 °F /  5.9 °C 30.6 °F /  -0.8 °C 29.81in /  1009.4hPa North 10.0mph /  16.1km/h 22.0mph /  35.4km/h 62% 0.00in /  0mm
03:11 42.6 °F /  5.9 °C 30.5 °F /  -0.8 °C 29.81in /  1009.4hPa NNW 8.0mph /  12.9km/h 15.0mph /  24.1km/h 62% 0.00in /  0mm
03:17 42.3 °F /  5.7 °C 30.6 °F /  -0.8 °C 29.81in /  1009.4hPa NNE 8.0mph /  12.9km/h 12.0mph /  19.3km/h 63% 0.00in /  0mm
03:22 42.0 °F /  5.6 °C 30.7 °F /  -0.7 °C 29.82in /  1009.7hPa NW 10.0mph /  16.1km/h 14.0mph /  22.5km/h 64% 0.00in /  0mm
03:27 41.9 °F /  5.5 °C 30.6 °F /  -0.8 °C 29.82in /  1009.7hPa North 10.0mph /  16.1km/h 18.0mph /  29km/h 64% 0.00in /  0mm
03:32 41.8 °F /  5.4 °C 30.5 °F /  -0.8 °C 29.82in /  1009.7hPa North 11.0mph /  17.7km/h 18.0mph /  29km/h 64% 0.00in /  0mm
03:37 41.5 °F /  5.3 °C 30.6 °F /  -0.8 °C 29.82in /  1009.7hPa NNW 8.0mph /  12.9km/h 17.0mph /  27.4km/h 65% 0.00in /  0mm
03:42 41.3 °F /  5.2 °C 30.4 °F /  -0.9 °C 29.82in /  1009.7hPa North 13.0mph /  20.9km/h 16.0mph /  25.7km/h 65% 0.00in /  0mm
03:47 41.2 °F /  5.1 °C 30.7 °F /  -0.7 °C 29.82in /  1009.7hPa North 9.0mph /  14.5km/h 11.0mph /  17.7km/h 66% 0.00in /  0mm
03:52 40.9 °F /  4.9 °C 30.8 °F /  -0.7 °C 29.82in /  1009.7hPa North 7.0mph /  11.3km/h 10.0mph /  16.1km/h 67% 0.00in /  0mm
03:57 40.6 °F /  4.8 °C 30.9 °F /  -0.6 °C 29.82in /  1009.7hPa North 6.0mph /  9.7km/h 9.0mph /  14.5km/h 68% 0.00in /  0mm
04:02 40.3 °F /  4.6 °C 31.0 °F /  -0.6 °C 29.81in /  1009.4hPa North 7.0mph /  11.3km/h 10.0mph /  16.1km/h 69% 0.00in /  0mm
04:07 40.1 °F /  4.5 °C 31.1 °F /  -0.5 °C 29.82in /  1009.7hPa NNW 8.0mph /  12.9km/h 12.0mph /  19.3km/h 70% 0.00in /  0mm
04:12 39.9 °F /  4.4 °C 30.9 °F /  -0.6 °C 29.82in /  1009.7hPa North 7.0mph /  11.3km/h 9.0mph /  14.5km/h 70% 0.00in /  0mm
04:17 39.7 °F /  4.3 °C 31.1 °F /  -0.5 °C 29.82in /  1009.7hPa NE 6.0mph /  9.7km/h 8.0mph /  12.9km/h 71% 0.00in /  0mm
04:22 39.6 °F /  4.2 °C 31.0 °F /  -0.6 °C 29.83in /  1010hPa NNE 4.0mph /  6.4km/h 9.0mph /  14.5km/h 71% 0.00in /  0mm
04:27 39.3 °F /  4.1 °C 30.7 °F /  -0.7 °C 29.83in /  1010hPa North 6.0mph /  9.7km/h 10.0mph /  16.1km/h 71% 0.00in /  0mm
04:32 39.2 °F /  4 °C 31.0 °F /  -0.6 °C 29.83in /  1010hPa NNE 4.0mph /  6.4km/h 10.0mph /  16.1km/h 72% 0.00in /  0mm
04:38 39.0 °F /  3.9 °C 30.8 °F /  -0.7 °C 29.83in /  1010hPa North 3.0mph /  4.8km/h 9.0mph /  14.5km/h 72% 0.00in /  0mm
04:43 38.7 °F /  3.7 °C 30.8 °F /  -0.7 °C 29.83in /  1010hPa NNW 5.0mph /  8km/h 6.0mph /  9.7km/h 73% 0.00in /  0mm
04:48 38.4 °F /  3.6 °C 30.9 °F /  -0.6 °C 29.84in /  1010.4hPa NNW 4.0mph /  6.4km/h 5.0mph /  8km/h 74% 0.00in /  0mm
04:53 38.1 °F /  3.4 °C 30.6 °F /  -0.8 °C 29.84in /  1010.4hPa North 4.0mph /  6.4km/h 5.0mph /  8km/h 74% 0.00in /  0mm
04:58 38.0 °F /  3.3 °C 30.8 °F /  -0.7 °C 29.84in /  1010.4hPa North 6.0mph /  9.7km/h 7.0mph /  11.3km/h 75% 0.00in /  0mm
05:03 37.9 °F /  3.3 °C 30.7 °F /  -0.7 °C 29.84in /  1010.4hPa NNW 5.0mph /  8km/h 7.0mph /  11.3km/h 75% 0.00in /  0mm
05:08 37.9 °F /  3.3 °C 31.0 °F /  -0.6 °C 29.84in /  1010.4hPa North 4.0mph /  6.4km/h 7.0mph /  11.3km/h 76% 0.00in /  0mm
05:13 37.7 °F /  3.2 °C 30.8 °F /  -0.7 °C 29.84in /  1010.4hPa North 3.0mph /  4.8km/h 6.0mph /  9.7km/h 76% 0.00in /  0mm
05:18 37.5 °F /  3.1 °C 31.0 °F /  -0.6 °C 29.85in /  1010.7hPa North 3.0mph /  4.8km/h 5.0mph /  8km/h 77% 0.00in /  0mm
05:23 37.3 °F /  2.9 °C 30.8 °F /  -0.7 °C 29.85in /  1010.7hPa NNE 2.0mph /  3.2km/h 3.0mph /  4.8km/h 77% 0.00in /  0mm
05:28 37.1 °F /  2.8 °C 30.6 °F /  -0.8 °C 29.85in /  1010.7hPa North 2.0mph /  3.2km/h 4.0mph /  6.4km/h 77% 0.00in /  0mm
05:33 36.8 °F /  2.7 °C 30.6 °F /  -0.8 °C 29.86in /  1011.1hPa NNW 2.0mph /  3.2km/h 4.0mph /  6.4km/h 78% 0.00in /  0mm
05:38 36.8 °F /  2.7 °C 30.6 °F /  -0.8 °C 29.86in /  1011.1hPa North 3.0mph /  4.8km/h 6.0mph /  9.7km/h 78% 0.00in /  0mm
05:43 36.6 °F /  2.6 °C 30.7 °F /  -0.7 °C 29.85in /  1010.7hPa North 3.0mph /  4.8km/h 6.0mph /  9.7km/h 79% 0.00in /  0mm
05:48 36.4 °F /  2.4 °C 30.8 °F /  -0.7 °C 29.86in /  1011.1hPa NW 3.0mph /  4.8km/h 5.0mph /  8km/h 80% 0.00in /  0mm
05:53 36.3 °F /  2.4 °C 30.7 °F /  -0.7 °C 29.87in /  1011.4hPa NNW 2.0mph /  3.2km/h 6.0mph /  9.7km/h 80% 0.00in /  0mm
05:58 36.2 °F /  2.3 °C 30.6 °F /  -0.8 °C 29.87in /  1011.4hPa North 3.0mph /  4.8km/h 5.0mph /  8km/h 80% 0.00in /  0mm
06:03 36.1 °F /  2.3 °C 30.8 °F /  -0.7 °C 29.87in /  1011.4hPa North 3.0mph /  4.8km/h 5.0mph /  8km/h 81% 0.00in /  0mm
06:08 36.1 °F /  2.3 °C 30.8 °F /  -0.7 °C 29.88in /  1011.7hPa NNW 3.0mph /  4.8km/h 5.0mph /  8km/h 81% 0.00in /  0mm
06:13 35.9 °F /  2.2 °C 30.6 °F /  -0.8 °C 29.88in /  1011.7hPa NNW 4.0mph /  6.4km/h 5.0mph /  8km/h 81% 0.00in /  0mm
06:18 35.8 °F /  2.1 °C 30.9 °F /  -0.6 °C 29.89in /  1012.1hPa NNW 2.0mph /  3.2km/h 3.0mph /  4.8km/h 82% 0.00in /  0mm
06:23 35.7 °F /  2.1 °C 30.8 °F /  -0.7 °C 29.89in /  1012.1hPa North 3.0mph /  4.8km/h 6.0mph /  9.7km/h 82% 0.00in /  0mm
06:28 35.6 °F /  2 °C 30.7 °F /  -0.7 °C 29.89in /  1012.1hPa NNW 3.0mph /  4.8km/h 4.0mph /  6.4km/h 82% 0.00in /  0mm
06:33 35.5 °F /  1.9 °C 30.9 °F /  -0.6 °C 29.90in /  1012.4hPa NNW 5.0mph /  8km/h 5.0mph /  8km/h 83% 0.00in /  0mm
06:38 35.4 °F /  1.9 °C 30.8 °F /  -0.7 °C 29.90in /  1012.4hPa NNW 4.0mph /  6.4km/h 4.0mph /  6.4km/h 83% 0.00in /  0mm
06:43 35.6 °F /  2 °C 31.0 °F /  -0.6 °C 29.90in /  1012.4hPa NNW 3.0mph /  4.8km/h 7.0mph /  11.3km/h 83% 0.00in /  0mm
06:48 35.6 °F /  2 °C 31.0 °F /  -0.6 °C 29.91in /  1012.8hPa NNW 3.0mph /  4.8km/h 7.0mph /  11.3km/h 83% 0.00in /  0mm
06:54 35.5 °F /  1.9 °C 30.9 °F /  -0.6 °C 29.91in /  1012.8hPa NW 5.0mph /  8km/h 7.0mph /  11.3km/h 83% 0.00in /  0mm
06:59 35.4 °F /  1.9 °C 30.8 °F /  -0.7 °C 29.91in /  1012.8hPa NW 4.0mph /  6.4km/h 6.0mph /  9.7km/h 83% 0.00in /  0mm
07:04 35.4 °F /  1.9 °C 30.8 °F /  -0.7 °C 29.91in /  1012.8hPa NNW 3.0mph /  4.8km/h 5.0mph /  8km/h 83% 0.00in /  0mm
07:09 35.3 °F /  1.8 °C 30.7 °F /  -0.7 °C 29.91in /  1012.8hPa NNW 3.0mph /  4.8km/h 5.0mph /  8km/h 83% 0.00in /  0mm
07:14 35.1 °F /  1.7 °C 30.8 °F /  -0.7 °C 29.91in /  1012.8hPa NNW 4.0mph /  6.4km/h 5.0mph /  8km/h 84% 0.00in /  0mm
07:19 35.1 °F /  1.7 °C 30.8 °F /  -0.7 °C 29.91in /  1012.8hPa NW 3.0mph /  4.8km/h 5.0mph /  8km/h 84% 0.00in /  0mm
07:24 35.0 °F /  1.7 °C 30.7 °F /  -0.7 °C 29.91in /  1012.8hPa NNW 3.0mph /  4.8km/h 6.0mph /  9.7km/h 84% 0.00in /  0mm
07:29 35.1 °F /  1.7 °C 30.8 °F /  -0.7 °C 29.91in /  1012.8hPa NW 3.0mph /  4.8km/h 7.0mph /  11.3km/h 84% 0.00in /  0mm
07:34 35.1 °F /  1.7 °C 30.8 °F /  -0.7 °C 29.91in /  1012.8hPa North 3.0mph /  4.8km/h 5.0mph /  8km/h 84% 0.00in /  0mm
07:39 35.2 °F /  1.8 °C 30.9 °F /  -0.6 °C 29.91in /  1012.8hPa North 3.0mph /  4.8km/h 5.0mph /  8km/h 84% 0.00in /  0mm
07:44 35.6 °F /  2 °C 31.2 °F /  -0.4 °C 29.91in /  1012.8hPa NNE 2.0mph /  3.2km/h 4.0mph /  6.4km/h 84% 0.00in /  0mm
07:49 35.9 °F /  2.2 °C 31.5 °F /  -0.3 °C 29.91in /  1012.8hPa NNE 2.0mph /  3.2km/h 4.0mph /  6.4km/h 84% 0.00in /  0mm
07:54 36.2 °F /  2.3 °C 31.5 °F /  -0.3 °C 29.91in /  1012.8hPa NNW 3.0mph /  4.8km/h 4.0mph /  6.4km/h 83% 0.00in /  0mm
07:59 36.4 °F /  2.4 °C 31.7 °F /  -0.2 °C 29.91in /  1012.8hPa NNW 2.0mph /  3.2km/h 4.0mph /  6.4km/h 83% 0.00in /  0mm
08:04 36.6 °F /  2.6 °C 31.9 °F /  -0.1 °C 29.91in /  1012.8hPa North 4.0mph /  6.4km/h 4.0mph /  6.4km/h 83% 0.00in /  0mm
08:09 36.9 °F /  2.7 °C 32.2 °F /  0.1 °C 29.92in /  1013.1hPa NNE 4.0mph /  6.4km/h 5.0mph /  8km/h 83% 0.00in /  0mm
08:14 37.2 °F /  2.9 °C 32.5 °F /  0.3 °C 29.92in /  1013.1hPa North 5.0mph /  8km/h 5.0mph /  8km/h 83% 0.00in /  0mm
08:19 37.5 °F /  3.1 °C 32.5 °F /  0.3 °C 29.92in /  1013.1hPa NNE 5.0mph /  8km/h 6.0mph /  9.7km/h 82% 0.00in /  0mm
08:24 38.0 °F /  3.3 °C 33.0 °F /  0.6 °C 29.93in /  1013.4hPa NNW 3.0mph /  4.8km/h 6.0mph /  9.7km/h 82% 0.00in /  0mm
08:29 38.4 °F /  3.6 °C 33.1 °F /  0.6 °C 29.93in /  1013.4hPa NNE 4.0mph /  6.4km/h 5.0mph /  8km/h 81% 0.00in /  0mm
08:34 38.8 °F /  3.8 °C 32.9 °F /  0.5 °C 29.93in /  1013.4hPa North 5.0mph /  8km/h 7.0mph /  11.3km/h 79% 0.00in /  0mm
08:39 39.2 °F /  4 °C 32.9 °F /  0.5 °C 29.93in /  1013.4hPa North 4.0mph /  6.4km/h 9.0mph /  14.5km/h 78% 0.00in /  0mm
08:44 39.6 °F /  4.2 °C 33.0 °F /  0.6 °C 29.93in /  1013.4hPa North 6.0mph /  9.7km/h 6.0mph /  9.7km/h 77% 0.00in /  0mm
08:49 40.0 °F /  4.4 °C 33.4 °F /  0.8 °C 29.94in /  1013.8hPa NE 4.0mph /  6.4km/h 6.0mph /  9.7km/h 77% 0.00in /  0mm
08:54 40.4 °F /  4.7 °C 33.1 °F /  0.6 °C 29.94in /  1013.8hPa North 6.0mph /  9.7km/h 9.0mph /  14.5km/h 75% 0.00in /  0mm
08:59 40.7 °F /  4.8 °C 32.4 °F /  0.2 °C 29.94in /  1013.8hPa NNW 2.0mph /  3.2km/h 9.0mph /  14.5km/h 72% 0.00in /  0mm
09:04 41.0 °F /  5 °C 32.0 °F /  0 °C 29.94in /  1013.8hPa NNE 6.0mph /  9.7km/h 8.0mph /  12.9km/h 70% 0.00in /  0mm
09:09 41.4 °F /  5.2 °C 32.4 °F /  0.2 °C 29.94in /  1013.8hPa NNE 3.0mph /  4.8km/h 8.0mph /  12.9km/h 70% 0.00in /  0mm
09:14 41.9 °F /  5.5 °C 32.1 °F /  0.1 °C 29.94in /  1013.8hPa North 4.0mph /  6.4km/h 7.0mph /  11.3km/h 68% 0.00in /  0mm
09:19 42.3 °F /  5.7 °C 32.5 °F /  0.3 °C 29.94in /  1013.8hPa NNE 4.0mph /  6.4km/h 7.0mph /  11.3km/h 68% 0.00in /  0mm
09:24 42.9 °F /  6.1 °C 33.1 °F /  0.6 °C 29.94in /  1013.8hPa NNE 4.0mph /  6.4km/h 5.0mph /  8km/h 68% 0.00in /  0mm
09:29 43.4 °F /  6.3 °C 32.0 °F /  0 °C 29.94in /  1013.8hPa NE 5.0mph /  8km/h 7.0mph /  11.3km/h 64% 0.00in /  0mm
09:34 43.5 °F /  6.4 °C 31.8 °F /  -0.1 °C 29.94in /  1013.8hPa NNE 8.0mph /  12.9km/h 8.0mph /  12.9km/h 63% 0.00in /  0mm
09:39 44.1 °F /  6.7 °C 32.7 °F /  0.4 °C 29.94in /  1013.8hPa North 3.0mph /  4.8km/h 7.0mph /  11.3km/h 64% 0.00in /  0mm
09:44 44.5 °F /  6.9 °C 31.5 °F /  -0.3 °C 29.94in /  1013.8hPa NNE 4.0mph /  6.4km/h 6.0mph /  9.7km/h 60% 0.00in /  0mm
09:50 44.5 °F /  6.9 °C 31.1 °F /  -0.5 °C 29.94in /  1013.8hPa NNE 5.0mph /  8km/h 9.0mph /  14.5km/h 59% 0.00in /  0mm
09:55 44.8 °F /  7.1 °C 31.8 °F /  -0.1 °C 29.95in /  1014.1hPa NNE 9.0mph /  14.5km/h 9.0mph /  14.5km/h 60% 0.00in /  0mm
10:00 45.3 °F /  7.4 °C 31.8 °F /  -0.1 °C 29.95in /  1014.1hPa NNW 2.0mph /  3.2km/h 7.0mph /  11.3km/h 59% 0.00in /  0mm
10:05 46.0 °F /  7.8 °C 32.5 °F /  0.3 °C 29.95in /  1014.1hPa NNE 4.0mph /  6.4km/h 8.0mph /  12.9km/h 59% 0.00in /  0mm
10:10 46.4 °F /  8 °C 30.7 °F /  -0.7 °C 29.95in /  1014.1hPa NNE 4.0mph /  6.4km/h 8.0mph /  12.9km/h 54% 0.00in /  0mm
10:15 46.8 °F /  8.2 °C 31.0 °F /  -0.6 °C 29.95in /  1014.1hPa NW 2.0mph /  3.2km/h 7.0mph /  11.3km/h 54% 0.00in /  0mm
10:20 47.3 °F /  8.5 °C 31.0 °F /  -0.6 °C 29.95in /  1014.1hPa NW 5.0mph /  8km/h 9.0mph /  14.5km/h 53% 0.00in /  0mm
10:25 47.3 °F /  8.5 °C 29.6 °F /  -1.3 °C 29.95in /  1014.1hPa NNW 7.0mph /  11.3km/h 15.0mph /  24.1km/h 50% 0.00in /  0mm
10:30 47.3 °F /  8.5 °C 32.0 °F /  0 °C 29.95in /  1014.1hPa NNW 6.0mph /  9.7km/h 10.0mph /  16.1km/h 55% 0.00in /  0mm
10:35 47.3 °F /  8.5 °C 30.6 °F /  -0.8 °C 29.95in /  1014.1hPa NW 3.0mph /  4.8km/h 10.0mph /  16.1km/h 52% 0.00in /  0mm
10:40 47.8 °F /  8.8 °C 31.0 °F /  -0.6 °C 29.96in /  1014.4hPa NW 9.0mph /  14.5km/h 11.0mph /  17.7km/h 52% 0.00in /  0mm
10:45 48.2 °F /  9 °C 30.5 °F /  -0.8 °C 29.95in /  1014.1hPa North 8.0mph /  12.9km/h 11.0mph /  17.7km/h 50% 0.00in /  0mm
10:50 48.1 °F /  8.9 °C 29.9 °F /  -1.2 °C 29.95in /  1014.1hPa NNW 8.0mph /  12.9km/h 13.0mph /  20.9km/h 49% 0.00in /  0mm
10:55 48.2 °F /  9 °C 28.9 °F /  -1.7 °C 29.95in /  1014.1hPa NNE 4.0mph /  6.4km/h 11.0mph /  17.7km/h 47% 0.00in /  0mm
11:00 48.3 °F /  9.1 °C 29.0 °F /  -1.7 °C 29.95in /  1014.1hPa NW 9.0mph /  14.5km/h 14.0mph /  22.5km/h 47% 0.00in /  0mm
11:05 48.5 °F /  9.2 °C 29.7 °F /  -1.3 °C 29.93in /  1013.4hPa NW 6.0mph /  9.7km/h 12.0mph /  19.3km/h 48% 0.00in /  0mm
11:10 48.6 °F /  9.2 °C 30.8 °F /  -0.7 °C 29.93in /  1013.4hPa NNE 11.0mph /  17.7km/h 13.0mph /  20.9km/h 50% 0.00in /  0mm
11:15 48.6 °F /  9.2 °C 30.3 °F /  -0.9 °C 29.93in /  1013.4hPa NNW 9.0mph /  14.5km/h 15.0mph /  24.1km/h 49% 0.00in /  0mm
11:20 48.9 °F /  9.4 °C 29.6 °F /  -1.3 °C 29.93in /  1013.4hPa NNE 7.0mph /  11.3km/h 14.0mph /  22.5km/h 47% 0.00in /  0mm
11:25 48.8 °F /  9.3 °C 30.0 °F /  -1.1 °C 29.93in /  1013.4hPa NNE 11.0mph /  17.7km/h 13.0mph /  20.9km/h 48% 0.00in /  0mm
11:30 48.8 °F /  9.3 °C 29.5 °F /  -1.4 °C 29.93in /  1013.4hPa NNE 10.0mph /  16.1km/h 17.0mph /  27.4km/h 47% 0.00in /  0mm
11:35 48.7 °F /  9.3 °C 29.4 °F /  -1.4 °C 29.92in /  1013.1hPa NE 12.0mph /  19.3km/h 12.0mph /  19.3km/h 47% 0.00in /  0mm
11:41 48.9 °F /  9.4 °C 29.0 °F /  -1.7 °C 29.93in /  1013.4hPa North 8.0mph /  12.9km/h 11.0mph /  17.7km/h 46% 0.00in /  0mm
11:46 49.6 °F /  9.8 °C 30.7 °F /  -0.7 °C 29.92in /  1013.1hPa NNE 10.0mph /  16.1km/h 12.0mph /  19.3km/h 48% 0.00in /  0mm
11:51 49.6 °F /  9.8 °C 30.2 °F /  -1 °C 29.93in /  1013.4hPa NNW 12.0mph /  19.3km/h 12.0mph /  19.3km/h 47% 0.00in /  0mm
11:56 50.1 °F /  10.1 °C 32.7 °F /  0.4 °C 29.93in /  1013.4hPa NW 8.0mph /  12.9km/h 9.0mph /  14.5km/h 51% 0.00in /  0mm
12:01 50.5 °F /  10.3 °C 31.6 °F /  -0.2 °C 29.93in /  1013.4hPa NW 3.0mph /  4.8km/h 10.0mph /  16.1km/h 48% 0.00in /  0mm
12:06 50.6 °F /  10.3 °C 32.7 °F /  0.4 °C 29.92in /  1013.1hPa ENE 6.0mph /  9.7km/h 8.0mph /  12.9km/h 50% 0.00in /  0mm
12:11 50.9 °F /  10.5 °C 31.4 °F /  -0.3 °C 29.92in /  1013.1hPa NNE 4.0mph /  6.4km/h 9.0mph /  14.5km/h 47% 0.00in /  0mm
12:16 51.1 °F /  10.6 °C 30.0 °F /  -1.1 °C 29.92in /  1013.1hPa NNW 4.0mph /  6.4km/h 10.0mph /  16.1km/h 44% 0.00in /  0mm
12:21 51.3 °F /  10.7 °C 30.7 °F /  -0.7 °C 29.92in /  1013.1hPa NNW 11.0mph /  17.7km/h 11.0mph /  17.7km/h 45% 0.00in /  0mm
12:26 51.4 °F /  10.8 °C 29.7 °F /  -1.3 °C 29.91in /  1012.8hPa NNW 8.0mph /  12.9km/h 13.0mph /  20.9km/h 43% 0.00in /  0mm
12:31 51.2 °F /  10.7 °C 26.5 °F /  -3.1 °C 29.91in /  1012.8hPa WNW 8.0mph /  12.9km/h 9.0mph /  14.5km/h 38% 0.00in /  0mm
12:36 50.6 °F /  10.3 °C 26.6 °F /  -3 °C 29.90in /  1012.4hPa NW 9.0mph /  14.5km/h 15.0mph /  24.1km/h 39% 0.00in /  0mm
12:41 50.7 °F /  10.4 °C 27.9 °F /  -2.3 °C 29.89in /  1012.1hPa NNW 8.0mph /  12.9km/h 15.0mph /  24.1km/h 41% 0.00in /  0mm
12:46 51.4 °F /  10.8 °C 27.9 °F /  -2.3 °C 29.89in /  1012.1hPa NW 9.0mph /  14.5km/h 15.0mph /  24.1km/h 40% 0.00in /  0mm
12:51 51.0 °F /  10.6 °C 27.5 °F /  -2.5 °C 29.89in /  1012.1hPa NW 9.0mph /  14.5km/h 11.0mph /  17.7km/h 40% 0.00in /  0mm
12:56 51.0 °F /  10.6 °C 26.9 °F /  -2.8 °C 29.89in /  1012.1hPa NNE 8.0mph /  12.9km/h 14.0mph /  22.5km/h 39% 0.00in /  0mm
13:01 50.9 °F /  10.5 °C 26.8 °F /  -2.9 °C 29.89in /  1012.1hPa NNW 5.0mph /  8km/h 11.0mph /  17.7km/h 39% 0.00in /  0mm
13:06 51.7 °F /  10.9 °C 28.2 °F /  -2.1 °C 29.89in /  1012.1hPa NNW 8.0mph /  12.9km/h 13.0mph /  20.9km/h 40% 0.00in /  0mm
13:11 52.0 °F /  11.1 °C 28.5 °F /  -1.9 °C 29.88in /  1011.7hPa NNW 9.0mph /  14.5km/h 13.0mph /  20.9km/h 40% 0.00in /  0mm
13:16 52.1 °F /  11.2 °C 27.9 °F /  -2.3 °C 29.88in /  1011.7hPa NNW 8.0mph /  12.9km/h 10.0mph /  16.1km/h 39% 0.00in /  0mm
13:21 52.6 °F /  11.4 °C 29.0 °F /  -1.7 °C 29.87in /  1011.4hPa North 11.0mph /  17.7km/h 15.0mph /  24.1km/h 40% 0.00in /  0mm
13:26 53.1 °F /  11.7 °C 28.8 °F /  -1.8 °C 29.86in /  1011.1hPa NW 5.0mph /  8km/h 11.0mph /  17.7km/h 39% 0.00in /  0mm
13:31 52.8 °F /  11.6 °C 28.5 °F /  -1.9 °C 29.86in /  1011.1hPa NNW 12.0mph /  19.3km/h 14.0mph /  22.5km/h 39% 0.00in /  0mm
13:36 52.4 °F /  11.3 °C 27.6 °F /  -2.4 °C 29.86in /  1011.1hPa NNE 6.0mph /  9.7km/h 10.0mph /  16.1km/h 38% 0.00in /  0mm
13:41 52.8 °F /  11.6 °C 27.3 °F /  -2.6 °C 29.86in /  1011.1hPa WNW 11.0mph /  17.7km/h 13.0mph /  20.9km/h 37% 0.00in /  0mm
13:47 53.0 °F /  11.7 °C 26.8 °F /  -2.9 °C 29.85in /  1010.7hPa WNW 8.0mph /  12.9km/h 14.0mph /  22.5km/h 36% 0.00in /  0mm
13:52 52.9 °F /  11.6 °C 26.7 °F /  -2.9 °C 29.85in /  1010.7hPa NW 7.0mph /  11.3km/h 13.0mph /  20.9km/h 36% 0.00in /  0mm
13:57 52.7 °F /  11.5 °C 26.5 °F /  -3.1 °C 29.85in /  1010.7hPa NNW 4.0mph /  6.4km/h 11.0mph /  17.7km/h 36% 0.00in /  0mm
14:02 53.4 °F /  11.9 °C 29.1 °F /  -1.6 °C 29.85in /  1010.7hPa NNW 7.0mph /  11.3km/h 10.0mph /  16.1km/h 39% 0.00in /  0mm
14:07 52.9 °F /  11.6 °C 28.6 °F /  -1.9 °C 29.86in /  1011.1hPa NNW 11.0mph /  17.7km/h 11.0mph /  17.7km/h 39% 0.00in /  0mm
14:12 52.8 °F /  11.6 °C 29.2 °F /  -1.6 °C 29.86in /  1011.1hPa NW 7.0mph /  11.3km/h 8.0mph /  12.9km/h 40% 0.00in /  0mm
14:17 52.9 °F /  11.6 °C 29.2 °F /  -1.6 °C 29.86in /  1011.1hPa NNW 4.0mph /  6.4km/h 11.0mph /  17.7km/h 40% 0.00in /  0mm
14:22 52.6 °F /  11.4 °C 26.4 °F /  -3.1 °C 29.86in /  1011.1hPa WNW 4.0mph /  6.4km/h 7.0mph /  11.3km/h 36% 0.00in /  0mm
14:27 53.2 °F /  11.8 °C 28.9 °F /  -1.7 °C 29.86in /  1011.1hPa WNW 7.0mph /  11.3km/h 7.0mph /  11.3km/h 39% 0.00in /  0mm
14:32 53.2 °F /  11.8 °C 27.0 °F /  -2.8 °C 29.86in /  1011.1hPa West 2.0mph /  3.2km/h 9.0mph /  14.5km/h 36% 0.00in /  0mm
14:37 53.5 °F /  11.9 °C 26.5 °F /  -3.1 °C 29.86in /  1011.1hPa WNW 6.0mph /  9.7km/h 8.0mph /  12.9km/h 35% 0.00in /  0mm
14:42 53.7 °F /  12.1 °C 25.3 °F /  -3.7 °C 29.86in /  1011.1hPa NW 10.0mph /  16.1km/h 14.0mph /  22.5km/h 33% 0.00in /  0mm
14:47 53.7 °F /  12.1 °C 24.6 °F /  -4.1 °C 29.86in /  1011.1hPa West 3.0mph /  4.8km/h 8.0mph /  12.9km/h 32% 0.00in /  0mm
14:52 54.3 °F /  12.4 °C 25.8 °F /  -3.4 °C 29.85in /  1010.7hPa West 6.0mph /  9.7km/h 10.0mph /  16.1km/h 33% 0.00in /  0mm
14:57 54.3 °F /  12.4 °C 25.8 °F /  -3.4 °C 29.86in /  1011.1hPa WNW 3.0mph /  4.8km/h 6.0mph /  9.7km/h 33% 0.00in /  0mm
15:02 54.3 °F /  12.4 °C 27.9 °F /  -2.3 °C 29.85in /  1010.7hPa East 2.0mph /  3.2km/h 5.0mph /  8km/h 36% 0.00in /  0mm
15:07 54.2 °F /  12.3 °C 27.2 °F /  -2.7 °C 29.85in /  1010.7hPa WNW 7.0mph /  11.3km/h 8.0mph /  12.9km/h 35% 0.00in /  0mm
15:12 53.9 °F /  12.2 °C 25.5 °F /  -3.6 °C 29.85in /  1010.7hPa NW 4.0mph /  6.4km/h 11.0mph /  17.7km/h 33% 0.00in /  0mm
15:17 53.8 °F /  12.1 °C 26.1 °F /  -3.3 °C 29.85in /  1010.7hPa WNW 8.0mph /  12.9km/h 9.0mph /  14.5km/h 34% 0.00in /  0mm
15:22 53.7 °F /  12.1 °C 25.3 °F /  -3.7 °C 29.85in /  1010.7hPa WNW 6.0mph /  9.7km/h 9.0mph /  14.5km/h 33% 0.00in /  0mm
15:27 54.0 °F /  12.2 °C 24.8 °F /  -4 °C 29.85in /  1010.7hPa WNW 6.0mph /  9.7km/h 10.0mph /  16.1km/h 32% 0.00in /  0mm
15:32 54.2 °F /  12.3 °C 26.5 °F /  -3.1 °C 29.85in /  1010.7hPa NW 4.0mph /  6.4km/h 6.0mph /  9.7km/h 34% 0.00in /  0mm
15:37 54.0 °F /  12.2 °C 25.6 °F /  -3.6 °C 29.85in /  1010.7hPa NW 8.0mph /  12.9km/h 12.0mph /  19.3km/h 33% 0.00in /  0mm
15:42 54.0 °F /  12.2 °C 27.0 °F /  -2.8 °C 29.85in /  1010.7hPa WNW 9.0mph /  14.5km/h 9.0mph /  14.5km/h 35% 0.00in /  0mm
15:47 53.8 °F /  12.1 °C 28.2 °F /  -2.1 °C 29.85in /  1010.7hPa NW 5.0mph /  8km/h 12.0mph /  19.3km/h 37% 0.00in /  0mm
15:52 54.1 °F /  12.3 °C 27.1 °F /  -2.7 °C 29.85in /  1010.7hPa WNW 3.0mph /  4.8km/h 7.0mph /  11.3km/h 35% 0.00in /  0mm
15:57 53.9 °F /  12.2 °C 26.2 °F /  -3.2 °C 29.85in /  1010.7hPa West 4.0mph /  6.4km/h 13.0mph /  20.9km/h 34% 0.00in /  0mm
16:02 53.4 °F /  11.9 °C 26.5 °F /  -3.1 °C 29.85in /  1010.7hPa WNW 6.0mph /  9.7km/h 9.0mph /  14.5km/h 35% 0.00in /  0mm
16:07 53.2 °F /  11.8 °C 25.6 °F /  -3.6 °C 29.84in /  1010.4hPa West 3.0mph /  4.8km/h 10.0mph /  16.1km/h 34% 0.00in /  0mm
16:12 53.2 °F /  11.8 °C 27.0 °F /  -2.8 °C 29.84in /  1010.4hPa WSW 5.0mph /  8km/h 9.0mph /  14.5km/h 36% 0.00in /  0mm
16:17 53.2 °F /  11.8 °C 27.0 °F /  -2.8 °C 29.84in /  1010.4hPa West 7.0mph /  11.3km/h 8.0mph /  12.9km/h 36% 0.00in /  0mm
16:22 53.5 °F /  11.9 °C 27.2 °F /  -2.7 °C 29.83in /  1010hPa West 10.0mph /  16.1km/h 10.0mph /  16.1km/h 36% 0.00in /  0mm
16:28 54.1 °F /  12.3 °C 27.8 °F /  -2.3 °C 29.83in /  1010hPa West 8.0mph /  12.9km/h 10.0mph /  16.1km/h 36% 0.00in /  0mm
16:33 54.1 °F /  12.3 °C 26.4 °F /  -3.1 °C 29.84in /  1010.4hPa West 4.0mph /  6.4km/h 8.0mph /  12.9km/h 34% 0.00in /  0mm
16:38 53.8 °F /  12.1 °C 26.8 °F /  -2.9 °C 29.84in /  1010.4hPa WNW 5.0mph /  8km/h 10.0mph /  16.1km/h 35% 0.00in /  0mm
16:43 53.5 °F /  11.9 °C 26.5 °F /  -3.1 °C 29.84in /  1010.4hPa WNW 5.0mph /  8km/h 11.0mph /  17.7km/h 35% 0.00in /  0mm
16:48 53.3 °F /  11.8 °C 26.4 °F /  -3.1 °C 29.85in /  1010.7hPa WNW 5.0mph /  8km/h 7.0mph /  11.3km/h 35% 0.00in /  0mm
16:53 53.8 °F /  12.1 °C 26.8 °F /  -2.9 °C 29.84in /  1010.4hPa West 5.0mph /  8km/h 12.0mph /  19.3km/h 35% 0.00in /  0mm
16:58 54.3 °F /  12.4 °C 25.8 °F /  -3.4 °C 29.83in /  1010hPa WNW 7.0mph /  11.3km/h 9.0mph /  14.5km/h 33% 0.00in /  0mm
17:03 54.3 °F /  12.4 °C 25.8 °F /  -3.4 °C 29.83in /  1010hPa WNW 4.0mph /  6.4km/h 9.0mph /  14.5km/h 33% 0.00in /  0mm
17:08 54.6 °F /  12.6 °C 25.4 °F /  -3.7 °C 29.82in /  1009.7hPa WNW 8.0mph /  12.9km/h 8.0mph /  12.9km/h 32% 0.00in /  0mm
17:13 54.6 °F /  12.6 °C 25.4 °F /  -3.7 °C 29.83in /  1010hPa WNW 6.0mph /  9.7km/h 11.0mph /  17.7km/h 32% 0.00in /  0mm
17:18 54.5 °F /  12.5 °C 24.5 °F /  -4.2 °C 29.83in /  1010hPa WNW 7.0mph /  11.3km/h 12.0mph /  19.3km/h 31% 0.00in /  0mm
17:23 54.3 °F /  12.4 °C 22.7 °F /  -5.2 °C 29.83in /  1010hPa West 6.0mph /  9.7km/h 12.0mph /  19.3km/h 29% 0.00in /  0mm
17:29 54.3 °F /  12.4 °C 23.5 °F /  -4.7 °C 29.83in /  1010hPa WNW 6.0mph /  9.7km/h 13.0mph /  20.9km/h 30% 0.00in /  0mm
17:33 54.3 °F /  12.4 °C 23.5 °F /  -4.7 °C 29.84in /  1010.4hPa WNW 6.0mph /  9.7km/h 8.0mph /  12.9km/h 30% 0.00in /  0mm
17:39 54.3 °F /  12.4 °C 24.3 °F /  -4.3 °C 29.84in /  1010.4hPa WNW 8.0mph /  12.9km/h 11.0mph /  17.7km/h 31% 0.00in /  0mm
17:44 54.2 °F /  12.3 °C 24.2 °F /  -4.3 °C 29.84in /  1010.4hPa WNW 5.0mph /  8km/h 7.0mph /  11.3km/h 31% 0.00in /  0mm
17:49 54.0 °F /  12.2 °C 25.6 °F /  -3.6 °C 29.84in /  1010.4hPa NW 6.0mph /  9.7km/h 10.0mph /  16.1km/h 33% 0.00in /  0mm
17:54 53.9 °F /  12.2 °C 24.0 °F /  -4.4 °C 29.84in /  1010.4hPa WSW 12.0mph /  19.3km/h 14.0mph /  22.5km/h 31% 0.00in /  0mm
17:59 53.8 °F /  12.1 °C 24.6 °F /  -4.1 °C 29.84in /  1010.4hPa WNW 5.0mph /  8km/h 10.0mph /  16.1km/h 32% 0.00in /  0mm
18:04 53.6 °F /  12 °C 23.7 °F /  -4.6 °C 29.84in /  1010.4hPa NW 4.0mph /  6.4km/h 12.0mph /  19.3km/h 31% 0.00in /  0mm
18:09 53.3 °F /  11.8 °C 23.5 °F /  -4.7 °C 29.84in /  1010.4hPa WNW 12.0mph /  19.3km/h 14.0mph /  22.5km/h 31% 0.00in /  0mm
18:14 53.0 °F /  11.7 °C 23.2 °F /  -4.9 °C 29.84in /  1010.4hPa WNW 8.0mph /  12.9km/h 13.0mph /  20.9km/h 31% 0.00in /  0mm
18:19 52.8 °F /  11.6 °C 24.5 °F /  -4.2 °C 29.84in /  1010.4hPa West 5.0mph /  8km/h 9.0mph /  14.5km/h 33% 0.00in /  0mm
18:24 52.4 °F /  11.3 °C 24.2 °F /  -4.3 °C 29.84in /  1010.4hPa WNW 6.0mph /  9.7km/h 7.0mph /  11.3km/h 33% 0.00in /  0mm
18:29 52.2 °F /  11.2 °C 24.7 °F /  -4.1 °C 29.85in /  1010.7hPa West 3.0mph /  4.8km/h 8.0mph /  12.9km/h 34% 0.00in /  0mm
18:34 51.7 °F /  10.9 °C 23.5 °F /  -4.7 °C 29.85in /  1010.7hPa WSW 5.0mph /  8km/h 9.0mph /  14.5km/h 33% 0.00in /  0mm
18:39 51.4 °F /  10.8 °C 22.5 °F /  -5.3 °C 29.85in /  1010.7hPa WNW 5.0mph /  8km/h 10.0mph /  16.1km/h 32% 0.00in /  0mm
18:44 51.0 °F /  10.6 °C 22.2 °F /  -5.4 °C 29.85in /  1010.7hPa West 8.0mph /  12.9km/h 9.0mph /  14.5km/h 32% 0.00in /  0mm
18:49 50.8 °F /  10.4 °C 22.0 °F /  -5.6 °C 29.86in /  1011.1hPa WNW 6.0mph /  9.7km/h 10.0mph /  16.1km/h 32% 0.00in /  0mm
18:54 50.6 °F /  10.3 °C 21.9 °F /  -5.6 °C 29.86in /  1011.1hPa WNW 5.0mph /  8km/h 9.0mph /  14.5km/h 32% 0.00in /  0mm
18:59 50.1 °F /  10.1 °C 22.8 °F /  -5.1 °C 29.86in /  1011.1hPa West 2.0mph /  3.2km/h 6.0mph /  9.7km/h 34% 0.00in /  0mm
19:04 49.7 °F /  9.8 °C 23.2 °F /  -4.9 °C 29.86in /  1011.1hPa WNW 3.0mph /  4.8km/h 6.0mph /  9.7km/h 35% 0.00in /  0mm
19:09 49.3 °F /  9.6 °C 22.8 °F /  -5.1 °C 29.86in /  1011.1hPa West 1.0mph /  1.6km/h 4.0mph /  6.4km/h 35% 0.00in /  0mm
19:14 49.0 °F /  9.4 °C 23.2 °F /  -4.9 °C 29.86in /  1011.1hPa West 2.0mph /  3.2km/h 5.0mph /  8km/h 36% 0.00in /  0mm
19:19 48.7 °F /  9.3 °C 23.6 °F /  -4.7 °C 29.86in /  1011.1hPa WNW 3.0mph /  4.8km/h 3.0mph /  4.8km/h 37% 0.00in /  0mm
19:24 48.4 °F /  9.1 °C 24.0 °F /  -4.4 °C 29.86in /  1011.1hPa West 1.0mph /  1.6km/h 2.0mph /  3.2km/h 38% 0.00in /  0mm
19:29 48.1 °F /  8.9 °C 23.1 °F /  -4.9 °C 29.86in /  1011.1hPa WNW 2.0mph /  3.2km/h 3.0mph /  4.8km/h 37% 0.00in /  0mm
19:34 47.9 °F /  8.8 °C 23.5 °F /  -4.7 °C 29.87in /  1011.4hPa West 1.0mph /  1.6km/h 2.0mph /  3.2km/h 38% 0.00in /  0mm
19:39 47.9 °F /  8.8 °C 23.5 °F /  -4.7 °C 29.87in /  1011.4hPa WNW 2.0mph /  3.2km/h 3.0mph /  4.8km/h 38% 0.00in /  0mm
19:44 47.7 °F /  8.7 °C 23.4 °F /  -4.8 °C 29.87in /  1011.4hPa WNW 1.0mph /  1.6km/h 3.0mph /  4.8km/h 38% 0.00in /  0mm
19:49 47.6 °F /  8.7 °C 23.3 °F /  -4.8 °C 29.87in /  1011.4hPa WNW 2.0mph /  3.2km/h 4.0mph /  6.4km/h 38% 0.00in /  0mm
19:54 47.3 °F /  8.5 °C 23.6 °F /  -4.7 °C 29.88in /  1011.7hPa West 2.0mph /  3.2km/h 3.0mph /  4.8km/h 39% 0.00in /  0mm
19:59 47.3 °F /  8.5 °C 23.6 °F /  -4.7 °C 29.88in /  1011.7hPa WNW 1.0mph /  1.6km/h 3.0mph /  4.8km/h 39% 0.00in /  0mm
20:04 47.3 °F /  8.5 °C 24.2 °F /  -4.3 °C 29.88in /  1011.7hPa WNW 2.0mph /  3.2km/h 3.0mph /  4.8km/h 40% 0.00in /  0mm
20:09 47.1 °F /  8.4 °C 24.0 °F /  -4.4 °C 29.88in /  1011.7hPa WNW 3.0mph /  4.8km/h 3.0mph /  4.8km/h 40% 0.00in /  0mm
20:14 47.0 °F /  8.3 °C 24.5 °F /  -4.2 °C 29.88in /  1011.7hPa NW 3.0mph /  4.8km/h 5.0mph /  8km/h 41% 0.00in /  0mm
20:19 46.7 °F /  8.2 °C 24.8 °F /  -4 °C 29.88in /  1011.7hPa WNW 4.0mph /  6.4km/h 4.0mph /  6.4km/h 42% 0.00in /  0mm
20:24 46.5 °F /  8.1 °C 24.7 °F /  -4.1 °C 29.88in /  1011.7hPa WNW 3.0mph /  4.8km/h 4.0mph /  6.4km/h 42% 0.00in /  0mm
20:29 46.2 °F /  7.9 °C 25.0 °F /  -3.9 °C 29.88in /  1011.7hPa WNW 3.0mph /  4.8km/h 4.0mph /  6.4km/h 43% 0.00in /  0mm
20:34 45.9 °F /  7.7 °C 25.2 °F /  -3.8 °C 29.88in /  1011.7hPa WNW 3.0mph /  4.8km/h 4.0mph /  6.4km/h 44% 0.00in /  0mm
20:39 45.7 °F /  7.6 °C 25.6 °F /  -3.6 °C 29.88in /  1011.7hPa WNW 6.0mph /  9.7km/h 6.0mph /  9.7km/h 45% 0.00in /  0mm
20:44 46.1 °F /  7.8 °C 24.3 °F /  -4.3 °C 29.88in /  1011.7hPa NW 9.0mph /  14.5km/h 13.0mph /  20.9km/h 42% 0.00in /  0mm
20:49 46.7 °F /  8.2 °C 24.3 °F /  -4.3 °C 29.89in /  1012.1hPa NW 6.0mph /  9.7km/h 11.0mph /  17.7km/h 41% 0.00in /  0mm
20:54 46.6 °F /  8.1 °C 24.2 °F /  -4.3 °C 29.89in /  1012.1hPa NW 6.0mph /  9.7km/h 9.0mph /  14.5km/h 41% 0.00in /  0mm
20:59 46.4 °F /  8 °C 24.0 °F /  -4.4 °C 29.89in /  1012.1hPa WNW 5.0mph /  8km/h 10.0mph /  16.1km/h 41% 0.00in /  0mm
21:04 46.2 °F /  7.9 °C 23.8 °F /  -4.6 °C 29.89in /  1012.1hPa WNW 6.0mph /  9.7km/h 9.0mph /  14.5km/h 41% 0.00in /  0mm
21:09 46.0 °F /  7.8 °C 23.6 °F /  -4.7 °C 29.89in /  1012.1hPa WNW 4.0mph /  6.4km/h 8.0mph /  12.9km/h 41% 0.00in /  0mm
21:14 46.0 °F /  7.8 °C 23.6 °F /  -4.7 °C 29.89in /  1012.1hPa WNW 6.0mph /  9.7km/h 10.0mph /  16.1km/h 41% 0.00in /  0mm
21:19 46.0 °F /  7.8 °C 23.6 °F /  -4.7 °C 29.90in /  1012.4hPa WNW 6.0mph /  9.7km/h 8.0mph /  12.9km/h 41% 0.00in /  0mm
21:24 45.7 °F /  7.6 °C 23.4 °F /  -4.8 °C 29.90in /  1012.4hPa WNW 4.0mph /  6.4km/h 8.0mph /  12.9km/h 41% 0.00in /  0mm
21:29 45.5 °F /  7.5 °C 23.8 °F /  -4.6 °C 29.90in /  1012.4hPa WNW 6.0mph /  9.7km/h 6.0mph /  9.7km/h 42% 0.00in /  0mm
21:34 45.3 °F /  7.4 °C 23.6 °F /  -4.7 °C 29.90in /  1012.4hPa NW 5.0mph /  8km/h 7.0mph /  11.3km/h 42% 0.00in /  0mm
21:39 45.2 °F /  7.3 °C 23.5 °F /  -4.7 °C 29.91in /  1012.8hPa NW 5.0mph /  8km/h 9.0mph /  14.5km/h 42% 0.00in /  0mm
21:44 45.1 °F /  7.3 °C 23.4 °F /  -4.8 °C 29.91in /  1012.8hPa WNW 7.0mph /  11.3km/h 8.0mph /  12.9km/h 42% 0.00in /  0mm
21:49 44.9 °F /  7.2 °C 23.8 °F /  -4.6 °C 29.91in /  1012.8hPa WNW 6.0mph /  9.7km/h 7.0mph /  11.3km/h 43% 0.00in /  0mm
21:54 44.9 °F /  7.2 °C 23.2 °F /  -4.9 °C 29.91in /  1012.8hPa West 6.0mph /  9.7km/h 8.0mph /  12.9km/h 42% 0.00in /  0mm
21:59 45.1 °F /  7.3 °C 23.4 °F /  -4.8 °C 29.91in /  1012.8hPa West 10.0mph /  16.1km/h 10.0mph /  16.1km/h 42% 0.00in /  0mm
22:04 45.0 °F /  7.2 °C 22.7 °F /  -5.2 °C 29.92in /  1013.1hPa West 5.0mph /  8km/h 10.0mph /  16.1km/h 41% 0.00in /  0mm
22:09 44.7 °F /  7.1 °C 23.0 °F /  -5 °C 29.92in /  1013.1hPa WNW 5.0mph /  8km/h 7.0mph /  11.3km/h 42% 0.00in /  0mm
22:14 44.7 °F /  7.1 °C 23.0 °F /  -5 °C 29.92in /  1013.1hPa West 5.0mph /  8km/h 9.0mph /  14.5km/h 42% 0.00in /  0mm
22:19 44.4 °F /  6.9 °C 22.8 °F /  -5.1 °C 29.92in /  1013.1hPa WNW 5.0mph /  8km/h 8.0mph /  12.9km/h 42% 0.00in /  0mm
22:24 44.1 °F /  6.7 °C 22.5 °F /  -5.3 °C 29.92in /  1013.1hPa WNW 5.0mph /  8km/h 8.0mph /  12.9km/h 42% 0.00in /  0mm
22:29 43.9 °F /  6.6 °C 22.9 °F /  -5.1 °C 29.93in /  1013.4hPa WNW 4.0mph /  6.4km/h 7.0mph /  11.3km/h 43% 0.00in /  0mm
22:34 43.7 °F /  6.5 °C 22.7 °F /  -5.2 °C 29.93in /  1013.4hPa WNW 4.0mph /  6.4km/h 6.0mph /  9.7km/h 43% 0.00in /  0mm
22:39 43.6 °F /  6.4 °C 22.6 °F /  -5.2 °C 29.93in /  1013.4hPa WNW 2.0mph /  3.2km/h 7.0mph /  11.3km/h 43% 0.00in /  0mm
22:44 43.4 °F /  6.3 °C 22.4 °F /  -5.3 °C 29.93in /  1013.4hPa WNW 3.0mph /  4.8km/h 7.0mph /  11.3km/h 43% 0.00in /  0mm
22:49 43.3 °F /  6.3 °C 22.3 °F /  -5.4 °C 29.93in /  1013.4hPa WNW 4.0mph /  6.4km/h 5.0mph /  8km/h 43% 0.00in /  0mm
22:54 42.9 °F /  6.1 °C 22.5 °F /  -5.3 °C 29.93in /  1013.4hPa WNW 3.0mph /  4.8km/h 4.0mph /  6.4km/h 44% 0.00in /  0mm
22:59 42.7 °F /  5.9 °C 22.3 °F /  -5.4 °C 29.93in /  1013.4hPa WNW 4.0mph /  6.4km/h 6.0mph /  9.7km/h 44% 0.00in /  0mm
23:04 42.5 °F /  5.8 °C 22.1 °F /  -5.5 °C 29.93in /  1013.4hPa West 4.0mph /  6.4km/h 4.0mph /  6.4km/h 44% 0.00in /  0mm
23:09 42.2 °F /  5.7 °C 22.4 °F /  -5.3 °C 29.93in /  1013.4hPa WNW 4.0mph /  6.4km/h 4.0mph /  6.4km/h 45% 0.00in /  0mm
23:14 41.9 °F /  5.5 °C 22.1 °F /  -5.5 °C 29.93in /  1013.4hPa WNW 5.0mph /  8km/h 5.0mph /  8km/h 45% 0.00in /  0mm
23:19 41.7 °F /  5.4 °C 22.5 °F /  -5.3 °C 29.93in /  1013.4hPa West 4.0mph /  6.4km/h 6.0mph /  9.7km/h 46% 0.00in /  0mm
23:24 41.5 °F /  5.3 °C 22.3 °F /  -5.4 °C 29.93in /  1013.4hPa West 1.0mph /  1.6km/h 3.0mph /  4.8km/h 46% 0.00in /  0mm
23:29 41.5 °F /  5.3 °C 22.3 °F /  -5.4 °C 29.93in /  1013.4hPa WNW 1.0mph /  1.6km/h 3.0mph /  4.8km/h 46% 0.00in /  0mm
23:35 41.4 °F /  5.2 °C 22.2 °F /  -5.4 °C 29.93in /  1013.4hPa WNW 2.0mph /  3.2km/h 4.0mph /  6.4km/h 46% 0.00in /  0mm
23:40 41.3 °F /  5.2 °C 22.1 °F /  -5.5 °C 29.93in /  1013.4hPa West 2.0mph /  3.2km/h 3.0mph /  4.8km/h 46% 0.00in /  0mm
23:45 41.2 °F /  5.1 °C 22.0 °F /  -5.6 °C 29.93in /  1013.4hPa WNW 2.0mph /  3.2km/h 5.0mph /  8km/h 46% 0.00in /  0mm
23:50 41.1 °F /  5.1 °C 21.9 °F /  -5.6 °C 29.92in /  1013.1hPa WNW 2.0mph /  3.2km/h 5.0mph /  8km/h 46% 0.00in /  0mm
23:55 40.8 °F /  4.9 °C 21.6 °F /  -5.8 °C 29.92in /  1013.1hPa NW 2.0mph /  3.2km/h 4.0mph /  6.4km/h 46% 0.00in /  0mm
Compliments of Weather Underground